sensor_id;sensor_type;location;lat;lon;timestamp;temperature;humidity
17092;DHT22;8661;45.700;4.880;2023-12-29T00:02:07;11.30;99.90
17092;DHT22;8661;45.700;4.880;2023-12-29T00:04:34;11.30;99.90
17092;DHT22;8661;45.700;4.880;2023-12-29T00:07:01;11.30;99.90
17092;DHT22;8661;45.700;4.880;2023-12-29T00:09:28;11.30;99.90
17092;DHT22;8661;45.700;4.880;2023-12-29T00:11:55;11.30;99.90
17092;DHT22;8661;45.700;4.880;2023-12-29T00:14:22;11.30;99.90
17092;DHT22;8661;45.700;4.880;2023-12-29T00:16:49;11.30;99.90
17092;DHT22;8661;45.700;4.880;2023-12-29T00:19:17;11.30;99.90
17092;DHT22;8661;45.700;4.880;2023-12-29T00:21:44;11.30;99.90
17092;DHT22;8661;45.700;4.880;2023-12-29T00:24:11;11.30;99.90
17092;DHT22;8661;45.700;4.880;2023-12-29T00:26:38;11.30;99.90
17092;DHT22;8661;45.700;4.880;2023-12-29T00:29:05;11.30;99.90
17092;DHT22;8661;45.700;4.880;2023-12-29T00:31:32;11.30;99.90
17092;DHT22;8661;45.700;4.880;2023-12-29T00:33:59;11.30;99.90
17092;DHT22;8661;45.700;4.880;2023-12-29T00:36:28;11.20;99.90
17092;DHT22;8661;45.700;4.880;2023-12-29T00:38:55;11.20;99.90
17092;DHT22;8661;45.700;4.880;2023-12-29T00:41:22;11.20;99.90
17092;DHT22;8661;45.700;4.880;2023-12-29T00:43:48;11.30;99.90
17092;DHT22;8661;45.700;4.880;2023-12-29T00:46:15;11.30;99.90
17092;DHT22;8661;45.700;4.880;2023-12-29T00:48:45;11.30;99.90
17092;DHT22;8661;45.700;4.880;2023-12-29T00:51:12;11.30;99.90
17092;DHT22;8661;45.700;4.880;2023-12-29T00:53:41;11.30;99.90
17092;DHT22;8661;45.700;4.880;2023-12-29T00:56:11;11.30;99.90
17092;DHT22;8661;45.700;4.880;2023-12-29T00:58:38;11.40;99.90
17092;DHT22;8661;45.700;4.880;2023-12-29T01:01:08;11.40;99.90
17092;DHT22;8661;45.700;4.880;2023-12-29T01:03:37;11.40;99.90
17092;DHT22;8661;45.700;4.880;2023-12-29T01:06:04;11.40;99.90
17092;DHT22;8661;45.700;4.880;2023-12-29T01:08:31;11.40;99.90
17092;DHT22;8661;45.700;4.880;2023-12-29T01:11:00;11.40;99.90
17092;DHT22;8661;45.700;4.880;2023-12-29T01:13:27;11.40;99.90
17092;DHT22;8661;45.700;4.880;2023-12-29T01:15:54;11.40;99.90
17092;DHT22;8661;45.700;4.880;2023-12-29T01:18:21;11.40;99.90
17092;DHT22;8661;45.700;4.880;2023-12-29T01:20:48;11.40;99.90
17092;DHT22;8661;45.700;4.880;2023-12-29T01:23:15;11.40;99.90
17092;DHT22;8661;45.700;4.880;2023-12-29T01:25:42;11.40;99.90
17092;DHT22;8661;45.700;4.880;2023-12-29T01:28:11;11.40;99.90
17092;DHT22;8661;45.700;4.880;2023-12-29T01:30:38;11.40;99.90
17092;DHT22;8661;45.700;4.880;2023-12-29T01:33:05;11.40;99.90
17092;DHT22;8661;45.700;4.880;2023-12-29T01:35:32;11.40;99.90
17092;DHT22;8661;45.700;4.880;2023-12-29T01:37:59;11.40;99.90
17092;DHT22;8661;45.700;4.880;2023-12-29T01:40:26;11.40;99.90
17092;DHT22;8661;45.700;4.880;2023-12-29T01:42:53;11.40;99.90
17092;DHT22;8661;45.700;4.880;2023-12-29T01:45:22;11.40;99.90
17092;DHT22;8661;45.700;4.880;2023-12-29T01:47:51;11.40;99.90
17092;DHT22;8661;45.700;4.880;2023-12-29T01:50:20;11.40;99.90
17092;DHT22;8661;45.700;4.880;2023-12-29T01:52:48;11.50;99.90
17092;DHT22;8661;45.700;4.880;2023-12-29T01:55:18;11.40;99.90
17092;DHT22;8661;45.700;4.880;2023-12-29T01:57:47;11.40;99.90
17092;DHT22;8661;45.700;4.880;2023-12-29T02:00:15;11.40;99.90
17092;DHT22;8661;45.700;4.880;2023-12-29T02:02:46;11.50;99.90
17092;DHT22;8661;45.700;4.880;2023-12-29T02:05:14;11.50;99.90
17092;DHT22;8661;45.700;4.880;2023-12-29T02:07:41;11.40;99.90
17092;DHT22;8661;45.700;4.880;2023-12-29T02:10:08;11.50;99.90
17092;DHT22;8661;45.700;4.880;2023-12-29T02:12:39;11.40;99.90
17092;DHT22;8661;45.700;4.880;2023-12-29T02:15:07;11.40;99.90
17092;DHT22;8661;45.700;4.880;2023-12-29T02:17:38;11.50;99.90
17092;DHT22;8661;45.700;4.880;2023-12-29T02:20:09;11.50;99.90
17092;DHT22;8661;45.700;4.880;2023-12-29T02:22:36;11.50;99.90
17092;DHT22;8661;45.700;4.880;2023-12-29T02:25:05;11.50;99.90
17092;DHT22;8661;45.700;4.880;2023-12-29T02:27:41;11.50;99.90
17092;DHT22;8661;45.700;4.880;2023-12-29T02:30:11;11.50;99.90
17092;DHT22;8661;45.700;4.880;2023-12-29T02:32:43;11.50;99.90
17092;DHT22;8661;45.700;4.880;2023-12-29T02:35:15;11.50;99.90
17092;DHT22;8661;45.700;4.880;2023-12-29T02:37:44;11.50;99.90
17092;DHT22;8661;45.700;4.880;2023-12-29T02:40:14;11.40;99.90
17092;DHT22;8661;45.700;4.880;2023-12-29T02:42:45;11.30;99.90
17092;DHT22;8661;45.700;4.880;2023-12-29T02:45:12;11.30;99.90
17092;DHT22;8661;45.700;4.880;2023-12-29T02:47:39;11.20;99.90
17092;DHT22;8661;45.700;4.880;2023-12-29T02:50:07;11.20;99.90
17092;DHT22;8661;45.700;4.880;2023-12-29T02:52:34;11.10;99.90
17092;DHT22;8661;45.700;4.880;2023-12-29T02:55:01;11.10;99.90
17092;DHT22;8661;45.700;4.880;2023-12-29T02:57:30;11.10;99.90
17092;DHT22;8661;45.700;4.880;2023-12-29T02:59:57;11.10;99.90
17092;DHT22;8661;45.700;4.880;2023-12-29T03:02:24;11.00;99.90
17092;DHT22;8661;45.700;4.880;2023-12-29T03:04:51;11.00;99.90
17092;DHT22;8661;45.700;4.880;2023-12-29T03:07:18;10.90;99.90
17092;DHT22;8661;45.700;4.880;2023-12-29T03:09:45;10.80;99.90
17092;DHT22;8661;45.700;4.880;2023-12-29T03:12:12;10.80;99.90
17092;DHT22;8661;45.700;4.880;2023-12-29T03:14:40;10.70;99.90
17092;DHT22;8661;45.700;4.880;2023-12-29T03:17:07;10.70;99.90
17092;DHT22;8661;45.700;4.880;2023-12-29T03:19:34;10.70;99.90
17092;DHT22;8661;45.700;4.880;2023-12-29T03:22:01;10.60;99.90
17092;DHT22;8661;45.700;4.880;2023-12-29T03:24:28;10.60;99.90
17092;DHT22;8661;45.700;4.880;2023-12-29T03:26:55;10.50;99.90
17092;DHT22;8661;45.700;4.880;2023-12-29T03:29:22;10.50;99.90
17092;DHT22;8661;45.700;4.880;2023-12-29T03:31:51;10.50;99.90
17092;DHT22;8661;45.700;4.880;2023-12-29T03:34:18;10.40;99.90
17092;DHT22;8661;45.700;4.880;2023-12-29T03:36:45;10.40;99.90
17092;DHT22;8661;45.700;4.880;2023-12-29T03:39:12;10.40;99.90
17092;DHT22;8661;45.700;4.880;2023-12-29T03:41:39;10.40;99.90
17092;DHT22;8661;45.700;4.880;2023-12-29T03:44:06;10.40;99.90
17092;DHT22;8661;45.700;4.880;2023-12-29T03:46:33;10.40;99.90
17092;DHT22;8661;45.700;4.880;2023-12-29T03:49:01;10.40;99.90
17092;DHT22;8661;45.700;4.880;2023-12-29T03:51:28;10.40;99.90
17092;DHT22;8661;45.700;4.880;2023-12-29T03:53:55;10.40;99.90
17092;DHT22;8661;45.700;4.880;2023-12-29T03:56:24;10.40;99.90
17092;DHT22;8661;45.700;4.880;2023-12-29T03:58:50;10.30;99.90
17092;DHT22;8661;45.700;4.880;2023-12-29T04:01:17;10.30;99.90
17092;DHT22;8661;45.700;4.880;2023-12-29T04:03:45;10.30;99.90
17092;DHT22;8661;45.700;4.880;2023-12-29T04:06:14;10.30;99.90
17092;DHT22;8661;45.700;4.880;2023-12-29T04:08:41;10.20;99.90
17092;DHT22;8661;45.700;4.880;2023-12-29T04:11:07;10.20;99.90
17092;DHT22;8661;45.700;4.880;2023-12-29T04:13:35;10.20;99.90
17092;DHT22;8661;45.700;4.880;2023-12-29T04:16:03;10.20;99.90
17092;DHT22;8661;45.700;4.880;2023-12-29T04:18:30;10.20;99.90
17092;DHT22;8661;45.700;4.880;2023-12-29T04:20:57;10.20;99.90
17092;DHT22;8661;45.700;4.880;2023-12-29T04:23:25;10.20;99.90
17092;DHT22;8661;45.700;4.880;2023-12-29T04:25:52;10.20;99.90
17092;DHT22;8661;45.700;4.880;2023-12-29T04:28:19;10.20;99.90
17092;DHT22;8661;45.700;4.880;2023-12-29T04:30:46;10.20;99.90
17092;DHT22;8661;45.700;4.880;2023-12-29T04:33:13;10.20;99.90
17092;DHT22;8661;45.700;4.880;2023-12-29T04:35:39;10.20;99.90
17092;DHT22;8661;45.700;4.880;2023-12-29T04:38:06;10.20;99.90
17092;DHT22;8661;45.700;4.880;2023-12-29T04:40:35;10.20;99.90
17092;DHT22;8661;45.700;4.880;2023-12-29T04:43:03;10.20;99.90
17092;DHT22;8661;45.700;4.880;2023-12-29T04:45:30;10.20;99.90
17092;DHT22;8661;45.700;4.880;2023-12-29T04:47:57;10.20;99.90
17092;DHT22;8661;45.700;4.880;2023-12-29T04:50:24;10.20;99.90
17092;DHT22;8661;45.700;4.880;2023-12-29T04:52:51;10.20;99.90
17092;DHT22;8661;45.700;4.880;2023-12-29T04:55:18;10.20;99.90
17092;DHT22;8661;45.700;4.880;2023-12-29T04:57:47;10.20;99.90
17092;DHT22;8661;45.700;4.880;2023-12-29T05:00:14;10.20;99.90
17092;DHT22;8661;45.700;4.880;2023-12-29T05:02:42;10.30;99.90
17092;DHT22;8661;45.700;4.880;2023-12-29T05:05:09;10.30;99.90
17092;DHT22;8661;45.700;4.880;2023-12-29T05:07:36;10.30;99.90
17092;DHT22;8661;45.700;4.880;2023-12-29T05:10:04;10.30;99.90
17092;DHT22;8661;45.700;4.880;2023-12-29T05:12:31;10.30;99.90
17092;DHT22;8661;45.700;4.880;2023-12-29T05:14:59;10.30;99.90
17092;DHT22;8661;45.700;4.880;2023-12-29T05:17:26;10.20;99.90
17092;DHT22;8661;45.700;4.880;2023-12-29T05:19:53;10.20;99.90
17092;DHT22;8661;45.700;4.880;2023-12-29T05:22:20;10.20;99.90
17092;DHT22;8661;45.700;4.880;2023-12-29T05:24:46;10.30;99.90
17092;DHT22;8661;45.700;4.880;2023-12-29T05:27:13;10.30;99.90
17092;DHT22;8661;45.700;4.880;2023-12-29T05:29:41;10.30;99.90
17092;DHT22;8661;45.700;4.880;2023-12-29T05:32:09;10.30;99.90
17092;DHT22;8661;45.700;4.880;2023-12-29T05:34:36;10.30;99.90
17092;DHT22;8661;45.700;4.880;2023-12-29T05:37:03;10.30;99.90
17092;DHT22;8661;45.700;4.880;2023-12-29T05:39:30;10.30;99.90
17092;DHT22;8661;45.700;4.880;2023-12-29T05:41:57;10.30;99.90
17092;DHT22;8661;45.700;4.880;2023-12-29T05:44:24;10.30;99.90
17092;DHT22;8661;45.700;4.880;2023-12-29T05:46:53;10.30;99.90
17092;DHT22;8661;45.700;4.880;2023-12-29T05:49:25;10.30;99.90
17092;DHT22;8661;45.700;4.880;2023-12-29T05:51:52;10.30;99.90
17092;DHT22;8661;45.700;4.880;2023-12-29T05:54:19;10.30;99.90
17092;DHT22;8661;45.700;4.880;2023-12-29T05:56:46;10.30;99.90
17092;DHT22;8661;45.700;4.880;2023-12-29T05:59:13;10.20;99.90
17092;DHT22;8661;45.700;4.880;2023-12-29T06:01:40;10.30;99.90
17092;DHT22;8661;45.700;4.880;2023-12-29T06:04:07;10.20;99.90
17092;DHT22;8661;45.700;4.880;2023-12-29T06:06:35;10.20;99.90
17092;DHT22;8661;45.700;4.880;2023-12-29T06:09:02;10.20;99.90
17092;DHT22;8661;45.700;4.880;2023-12-29T06:11:29;10.20;99.90
17092;DHT22;8661;45.700;4.880;2023-12-29T06:13:56;10.20;99.90
17092;DHT22;8661;45.700;4.880;2023-12-29T06:16:23;10.20;99.90
17092;DHT22;8661;45.700;4.880;2023-12-29T06:18:52;10.20;99.90
17092;DHT22;8661;45.700;4.880;2023-12-29T06:21:19;10.20;99.90
17092;DHT22;8661;45.700;4.880;2023-12-29T06:23:47;10.20;99.90
17092;DHT22;8661;45.700;4.880;2023-12-29T06:26:15;10.20;99.90
17092;DHT22;8661;45.700;4.880;2023-12-29T06:28:45;10.20;99.90
17092;DHT22;8661;45.700;4.880;2023-12-29T06:31:12;10.10;99.90
17092;DHT22;8661;45.700;4.880;2023-12-29T06:33:40;10.10;99.90
17092;DHT22;8661;45.700;4.880;2023-12-29T06:36:08;10.10;99.90
17092;DHT22;8661;45.700;4.880;2023-12-29T06:38:35;10.10;99.90
17092;DHT22;8661;45.700;4.880;2023-12-29T06:41:04;10.10;99.90
17092;DHT22;8661;45.700;4.880;2023-12-29T06:43:31;10.10;99.90
17092;DHT22;8661;45.700;4.880;2023-12-29T06:45:59;10.10;99.90
17092;DHT22;8661;45.700;4.880;2023-12-29T06:48:26;10.10;99.90
17092;DHT22;8661;45.700;4.880;2023-12-29T06:50:53;10.10;99.90
17092;DHT22;8661;45.700;4.880;2023-12-29T06:53:20;10.10;99.90
17092;DHT22;8661;45.700;4.880;2023-12-29T06:55:47;10.00;99.90
17092;DHT22;8661;45.700;4.880;2023-12-29T06:58:15;10.00;99.90
17092;DHT22;8661;45.700;4.880;2023-12-29T07:00:42;10.00;99.90
17092;DHT22;8661;45.700;4.880;2023-12-29T07:03:09;10.00;99.90
17092;DHT22;8661;45.700;4.880;2023-12-29T07:05:38;9.90;99.90
17092;DHT22;8661;45.700;4.880;2023-12-29T07:08:06;9.90;99.90
17092;DHT22;8661;45.700;4.880;2023-12-29T07:10:32;9.90;99.90
17092;DHT22;8661;45.700;4.880;2023-12-29T07:12:59;9.90;99.90
17092;DHT22;8661;45.700;4.880;2023-12-29T07:15:28;9.80;99.90
17092;DHT22;8661;45.700;4.880;2023-12-29T07:17:55;9.80;99.90
17092;DHT22;8661;45.700;4.880;2023-12-29T07:20:21;9.80;99.90
17092;DHT22;8661;45.700;4.880;2023-12-29T07:22:48;9.80;99.90
17092;DHT22;8661;45.700;4.880;2023-12-29T07:25:15;9.80;99.90
17092;DHT22;8661;45.700;4.880;2023-12-29T07:27:42;9.80;99.90
17092;DHT22;8661;45.700;4.880;2023-12-29T07:30:10;9.90;99.90
17092;DHT22;8661;45.700;4.880;2023-12-29T07:32:39;9.90;99.90
17092;DHT22;8661;45.700;4.880;2023-12-29T07:35:06;10.00;99.90
17092;DHT22;8661;45.700;4.880;2023-12-29T07:37:33;10.00;99.90
17092;DHT22;8661;45.700;4.880;2023-12-29T07:40:00;10.10;99.90
17092;DHT22;8661;45.700;4.880;2023-12-29T07:42:28;10.10;99.90
17092;DHT22;8661;45.700;4.880;2023-12-29T07:44:55;10.10;99.90
17092;DHT22;8661;45.700;4.880;2023-12-29T07:47:22;10.20;99.90
17092;DHT22;8661;45.700;4.880;2023-12-29T07:49:50;10.20;99.90
17092;DHT22;8661;45.700;4.880;2023-12-29T07:52:17;10.20;99.90
17092;DHT22;8661;45.700;4.880;2023-12-29T07:54:44;10.20;99.90
17092;DHT22;8661;45.700;4.880;2023-12-29T07:57:11;10.20;99.90
17092;DHT22;8661;45.700;4.880;2023-12-29T07:59:38;10.20;99.90
17092;DHT22;8661;45.700;4.880;2023-12-29T08:02:05;10.20;99.90
17092;DHT22;8661;45.700;4.880;2023-12-29T08:04:32;10.20;99.90
17092;DHT22;8661;45.700;4.880;2023-12-29T08:07:00;10.30;99.90
17092;DHT22;8661;45.700;4.880;2023-12-29T08:09:27;10.40;99.90
17092;DHT22;8661;45.700;4.880;2023-12-29T08:11:54;10.50;99.90
17092;DHT22;8661;45.700;4.880;2023-12-29T08:14:21;10.60;99.90
17092;DHT22;8661;45.700;4.880;2023-12-29T08:16:48;10.70;99.90
17092;DHT22;8661;45.700;4.880;2023-12-29T08:19:15;10.80;99.90
17092;DHT22;8661;45.700;4.880;2023-12-29T08:21:43;10.80;99.90
17092;DHT22;8661;45.700;4.880;2023-12-29T08:24:11;10.80;99.90
17092;DHT22;8661;45.700;4.880;2023-12-29T08:26:44;10.90;99.90
17092;DHT22;8661;45.700;4.880;2023-12-29T08:29:12;10.90;99.90
17092;DHT22;8661;45.700;4.880;2023-12-29T08:31:39;10.80;99.90
17092;DHT22;8661;45.700;4.880;2023-12-29T08:34:05;10.80;99.90
17092;DHT22;8661;45.700;4.880;2023-12-29T08:36:33;10.80;99.90
17092;DHT22;8661;45.700;4.880;2023-12-29T08:39:00;10.80;99.90
17092;DHT22;8661;45.700;4.880;2023-12-29T08:41:28;10.80;99.90
17092;DHT22;8661;45.700;4.880;2023-12-29T08:43:55;10.90;99.90
17092;DHT22;8661;45.700;4.880;2023-12-29T08:46:22;10.90;99.90
17092;DHT22;8661;45.700;4.880;2023-12-29T08:48:50;11.00;99.90
17092;DHT22;8661;45.700;4.880;2023-12-29T08:51:17;11.00;99.90
17092;DHT22;8661;45.700;4.880;2023-12-29T08:53:44;11.00;99.90
17092;DHT22;8661;45.700;4.880;2023-12-29T08:56:11;11.10;99.90
17092;DHT22;8661;45.700;4.880;2023-12-29T08:58:40;11.30;99.90
17092;DHT22;8661;45.700;4.880;2023-12-29T09:01:07;11.40;99.90
17092;DHT22;8661;45.700;4.880;2023-12-29T09:03:34;11.40;99.90
17092;DHT22;8661;45.700;4.880;2023-12-29T09:06:01;11.50;99.90
17092;DHT22;8661;45.700;4.880;2023-12-29T09:08:29;12.00;99.90
17092;DHT22;8661;45.700;4.880;2023-12-29T09:10:56;12.10;99.90
17092;DHT22;8661;45.700;4.880;2023-12-29T09:13:23;12.10;99.90
17092;DHT22;8661;45.700;4.880;2023-12-29T09:15:53;12.20;99.90
17092;DHT22;8661;45.700;4.880;2023-12-29T09:18:20;12.70;99.90
17092;DHT22;8661;45.700;4.880;2023-12-29T09:20:47;14.20;99.90
17092;DHT22;8661;45.700;4.880;2023-12-29T09:23:14;15.10;99.90
17092;DHT22;8661;45.700;4.880;2023-12-29T09:25:41;16.30;99.90
17092;DHT22;8661;45.700;4.880;2023-12-29T09:28:08;17.30;99.90
17092;DHT22;8661;45.700;4.880;2023-12-29T09:30:35;17.60;99.90
17092;DHT22;8661;45.700;4.880;2023-12-29T09:33:04;17.10;99.90
17092;DHT22;8661;45.700;4.880;2023-12-29T09:35:31;18.10;99.90
17092;DHT22;8661;45.700;4.880;2023-12-29T09:37:57;17.90;99.90
17092;DHT22;8661;45.700;4.880;2023-12-29T09:40:25;19.60;99.90
17092;DHT22;8661;45.700;4.880;2023-12-29T09:42:52;22.40;98.40
17092;DHT22;8661;45.700;4.880;2023-12-29T09:45:23;24.30;91.90
17092;DHT22;8661;45.700;4.880;2023-12-29T09:47:51;25.90;86.30
17092;DHT22;8661;45.700;4.880;2023-12-29T09:50:21;24.20;84.60
17092;DHT22;8661;45.700;4.880;2023-12-29T09:52:49;22.80;87.80
17092;DHT22;8661;45.700;4.880;2023-12-29T09:55:17;21.20;90.80
17092;DHT22;8661;45.700;4.880;2023-12-29T09:57:44;19.30;93.10
17092;DHT22;8661;45.700;4.880;2023-12-29T10:00:12;17.60;96.10
17092;DHT22;8661;45.700;4.880;2023-12-29T10:02:41;16.50;98.70
17092;DHT22;8661;45.700;4.880;2023-12-29T10:05:09;15.70;99.90
17092;DHT22;8661;45.700;4.880;2023-12-29T10:07:38;15.30;99.90
17092;DHT22;8661;45.700;4.880;2023-12-29T10:10:06;16.40;99.90
17092;DHT22;8661;45.700;4.880;2023-12-29T10:12:35;18.50;99.10
17092;DHT22;8661;45.700;4.880;2023-12-29T10:15:06;17.70;98.70
17092;DHT22;8661;45.700;4.880;2023-12-29T10:17:41;16.80;99.90
17092;DHT22;8661;45.700;4.880;2023-12-29T10:20:19;16.20;99.90
17092;DHT22;8661;45.700;4.880;2023-12-29T10:22:58;15.50;99.90
17092;DHT22;8661;45.700;4.880;2023-12-29T10:25:27;15.30;99.90
17092;DHT22;8661;45.700;4.880;2023-12-29T10:27:56;14.90;99.90
17092;DHT22;8661;45.700;4.880;2023-12-29T10:30:24;14.40;99.90
17092;DHT22;8661;45.700;4.880;2023-12-29T10:32:52;14.40;99.90
17092;DHT22;8661;45.700;4.880;2023-12-29T10:35:19;14.70;99.90
17092;DHT22;8661;45.700;4.880;2023-12-29T10:37:46;16.40;99.90
17092;DHT22;8661;45.700;4.880;2023-12-29T10:40:18;18.20;99.90
17092;DHT22;8661;45.700;4.880;2023-12-29T10:42:52;18.10;99.90
17092;DHT22;8661;45.700;4.880;2023-12-29T10:45:20;17.90;99.90
17092;DHT22;8661;45.700;4.880;2023-12-29T10:47:50;18.40;99.90
17092;DHT22;8661;45.700;4.880;2023-12-29T10:50:17;18.80;98.60
17092;DHT22;8661;45.700;4.880;2023-12-29T10:52:44;18.10;99.00
17092;DHT22;8661;45.700;4.880;2023-12-29T10:55:12;17.90;99.20
17092;DHT22;8661;45.700;4.880;2023-12-29T10:57:40;17.50;99.90
17092;DHT22;8661;45.700;4.880;2023-12-29T11:00:08;17.40;99.90
17092;DHT22;8661;45.700;4.880;2023-12-29T11:02:38;16.90;99.90
17092;DHT22;8661;45.700;4.880;2023-12-29T11:05:06;16.70;99.90
17092;DHT22;8661;45.700;4.880;2023-12-29T11:07:34;16.40;99.90
17092;DHT22;8661;45.700;4.880;2023-12-29T11:10:03;16.20;99.90
17092;DHT22;8661;45.700;4.880;2023-12-29T11:12:34;16.10;99.90
17092;DHT22;8661;45.700;4.880;2023-12-29T11:15:05;16.50;99.90
17092;DHT22;8661;45.700;4.880;2023-12-29T11:17:33;16.80;99.90
17092;DHT22;8661;45.700;4.880;2023-12-29T11:20:01;16.40;99.90
17092;DHT22;8661;45.700;4.880;2023-12-29T11:22:34;16.20;99.90
17092;DHT22;8661;45.700;4.880;2023-12-29T11:25:04;15.90;99.90
17092;DHT22;8661;45.700;4.880;2023-12-29T11:27:33;15.50;99.90
17092;DHT22;8661;45.700;4.880;2023-12-29T11:30:03;15.10;99.90
17092;DHT22;8661;45.700;4.880;2023-12-29T11:32:37;14.80;99.90
17092;DHT22;8661;45.700;4.880;2023-12-29T11:35:12;14.60;99.90
17092;DHT22;8661;45.700;4.880;2023-12-29T11:37:58;14.50;99.90
17092;DHT22;8661;45.700;4.880;2023-12-29T11:40:32;14.40;99.90
17092;DHT22;8661;45.700;4.880;2023-12-29T11:43:07;14.20;99.90
17092;DHT22;8661;45.700;4.880;2023-12-29T11:45:36;14.20;99.90
17092;DHT22;8661;45.700;4.880;2023-12-29T11:48:05;13.90;99.90
17092;DHT22;8661;45.700;4.880;2023-12-29T11:50:33;13.70;99.90
17092;DHT22;8661;45.700;4.880;2023-12-29T11:53:02;13.60;99.90
17092;DHT22;8661;45.700;4.880;2023-12-29T11:55:34;13.50;99.90
17092;DHT22;8661;45.700;4.880;2023-12-29T11:58:02;13.50;99.90
17092;DHT22;8661;45.700;4.880;2023-12-29T12:00:45;13.40;99.90
17092;DHT22;8661;45.700;4.880;2023-12-29T12:03:17;13.40;99.90
17092;DHT22;8661;45.700;4.880;2023-12-29T12:05:45;13.40;99.90
17092;DHT22;8661;45.700;4.880;2023-12-29T12:08:27;13.40;99.90
17092;DHT22;8661;45.700;4.880;2023-12-29T12:10:54;13.40;99.90
17092;DHT22;8661;45.700;4.880;2023-12-29T12:13:42;13.40;99.90
17092;DHT22;8661;45.700;4.880;2023-12-29T12:16:49;13.50;99.90
17092;DHT22;8661;45.700;4.880;2023-12-29T12:19:17;13.60;99.90
17092;DHT22;8661;45.700;4.880;2023-12-29T12:21:47;13.70;99.90
17092;DHT22;8661;45.700;4.880;2023-12-29T12:24:16;13.70;99.90
17092;DHT22;8661;45.700;4.880;2023-12-29T12:26:45;13.70;99.90
17092;DHT22;8661;45.700;4.880;2023-12-29T12:29:13;13.70;99.90
17092;DHT22;8661;45.700;4.880;2023-12-29T12:31:53;13.70;99.90
17092;DHT22;8661;45.700;4.880;2023-12-29T12:34:20;13.70;99.90
17092;DHT22;8661;45.700;4.880;2023-12-29T12:36:51;13.70;99.90
17092;DHT22;8661;45.700;4.880;2023-12-29T12:39:18;13.70;99.90
17092;DHT22;8661;45.700;4.880;2023-12-29T12:41:45;13.70;99.90
17092;DHT22;8661;45.700;4.880;2023-12-29T12:44:13;13.60;99.90
17092;DHT22;8661;45.700;4.880;2023-12-29T12:46:44;13.70;99.90
17092;DHT22;8661;45.700;4.880;2023-12-29T12:49:16;13.70;99.90
17092;DHT22;8661;45.700;4.880;2023-12-29T12:51:44;13.80;99.90
17092;DHT22;8661;45.700;4.880;2023-12-29T12:54:15;14.00;99.90
17092;DHT22;8661;45.700;4.880;2023-12-29T12:56:43;14.10;99.90
17092;DHT22;8661;45.700;4.880;2023-12-29T12:59:11;14.50;99.90
17092;DHT22;8661;45.700;4.880;2023-12-29T13:01:38;14.60;99.90
17092;DHT22;8661;45.700;4.880;2023-12-29T13:04:06;14.60;99.90
17092;DHT22;8661;45.700;4.880;2023-12-29T13:06:39;14.50;99.90
17092;DHT22;8661;45.700;4.880;2023-12-29T13:09:07;14.40;99.90
17092;DHT22;8661;45.700;4.880;2023-12-29T13:11:37;14.30;99.90
17092;DHT22;8661;45.700;4.880;2023-12-29T13:14:04;14.30;99.90
17092;DHT22;8661;45.700;4.880;2023-12-29T13:16:32;14.20;99.90
17092;DHT22;8661;45.700;4.880;2023-12-29T13:19:14;14.10;99.90
17092;DHT22;8661;45.700;4.880;2023-12-29T13:21:44;14.10;99.90
17092;DHT22;8661;45.700;4.880;2023-12-29T13:24:12;14.20;99.90
17092;DHT22;8661;45.700;4.880;2023-12-29T13:26:41;14.10;99.90
17092;DHT22;8661;45.700;4.880;2023-12-29T13:29:09;14.10;99.90
17092;DHT22;8661;45.700;4.880;2023-12-29T13:31:36;14.00;99.90
17092;DHT22;8661;45.700;4.880;2023-12-29T13:34:11;14.10;99.90
17092;DHT22;8661;45.700;4.880;2023-12-29T13:36:41;14.00;99.90
17092;DHT22;8661;45.700;4.880;2023-12-29T13:39:16;14.10;99.90
17092;DHT22;8661;45.700;4.880;2023-12-29T13:41:48;13.90;99.90
17092;DHT22;8661;45.700;4.880;2023-12-29T13:44:16;13.90;99.90
17092;DHT22;8661;45.700;4.880;2023-12-29T13:46:45;13.80;99.90
17092;DHT22;8661;45.700;4.880;2023-12-29T13:49:13;13.90;99.90
17092;DHT22;8661;45.700;4.880;2023-12-29T13:51:41;13.90;99.90
17092;DHT22;8661;45.700;4.880;2023-12-29T13:54:10;13.90;99.90
17092;DHT22;8661;45.700;4.880;2023-12-29T13:56:37;14.00;99.90
17092;DHT22;8661;45.700;4.880;2023-12-29T13:59:04;14.10;99.90
17092;DHT22;8661;45.700;4.880;2023-12-29T14:01:35;14.10;99.90
17092;DHT22;8661;45.700;4.880;2023-12-29T14:04:03;14.20;99.90
17092;DHT22;8661;45.700;4.880;2023-12-29T14:06:39;14.30;99.90
17092;DHT22;8661;45.700;4.880;2023-12-29T14:09:06;14.50;99.90
17092;DHT22;8661;45.700;4.880;2023-12-29T14:11:35;14.70;99.90
17092;DHT22;8661;45.700;4.880;2023-12-29T14:14:02;14.70;99.90
17092;DHT22;8661;45.700;4.880;2023-12-29T14:16:29;14.70;99.90
17092;DHT22;8661;45.700;4.880;2023-12-29T14:18:56;14.70;99.90
17092;DHT22;8661;45.700;4.880;2023-12-29T14:21:27;14.60;99.90
17092;DHT22;8661;45.700;4.880;2023-12-29T14:24:02;14.40;99.90
17092;DHT22;8661;45.700;4.880;2023-12-29T14:26:31;14.30;99.90
17092;DHT22;8661;45.700;4.880;2023-12-29T14:29:07;14.30;99.90
17092;DHT22;8661;45.700;4.880;2023-12-29T14:31:36;14.40;99.90
17092;DHT22;8661;45.700;4.880;2023-12-29T14:34:04;14.20;99.90
17092;DHT22;8661;45.700;4.880;2023-12-29T14:36:31;14.10;99.90
17092;DHT22;8661;45.700;4.880;2023-12-29T14:38:59;14.10;99.90
17092;DHT22;8661;45.700;4.880;2023-12-29T14:41:26;14.10;99.90
17092;DHT22;8661;45.700;4.880;2023-12-29T14:43:53;14.10;99.90
17092;DHT22;8661;45.700;4.880;2023-12-29T14:46:21;14.10;99.90
17092;DHT22;8661;45.700;4.880;2023-12-29T14:48:48;14.10;99.90
17092;DHT22;8661;45.700;4.880;2023-12-29T14:51:16;14.00;99.90
17092;DHT22;8661;45.700;4.880;2023-12-29T14:53:44;14.10;99.90
17092;DHT22;8661;45.700;4.880;2023-12-29T14:56:12;14.10;99.90
17092;DHT22;8661;45.700;4.880;2023-12-29T14:58:39;14.00;99.90
17092;DHT22;8661;45.700;4.880;2023-12-29T15:01:06;13.90;99.90
17092;DHT22;8661;45.700;4.880;2023-12-29T15:03:35;13.80;99.90
17092;DHT22;8661;45.700;4.880;2023-12-29T15:06:03;13.70;99.90
17092;DHT22;8661;45.700;4.880;2023-12-29T15:08:31;13.60;99.90
17092;DHT22;8661;45.700;4.880;2023-12-29T15:11:01;13.60;99.90
17092;DHT22;8661;45.700;4.880;2023-12-29T15:13:28;13.50;99.90
17092;DHT22;8661;45.700;4.880;2023-12-29T15:15:56;13.40;99.90
17092;DHT22;8661;45.700;4.880;2023-12-29T15:18:24;13.30;99.90
17092;DHT22;8661;45.700;4.880;2023-12-29T15:20:53;13.30;99.90
17092;DHT22;8661;45.700;4.880;2023-12-29T15:23:20;13.20;99.90
17092;DHT22;8661;45.700;4.880;2023-12-29T15:25:48;13.10;99.90
17092;DHT22;8661;45.700;4.880;2023-12-29T15:28:15;13.10;99.90
17092;DHT22;8661;45.700;4.880;2023-12-29T15:30:43;13.00;99.90
17092;DHT22;8661;45.700;4.880;2023-12-29T15:33:10;13.00;99.90
17092;DHT22;8661;45.700;4.880;2023-12-29T15:35:37;12.90;99.90
17092;DHT22;8661;45.700;4.880;2023-12-29T15:38:06;12.90;99.90
17092;DHT22;8661;45.700;4.880;2023-12-29T15:40:33;12.80;99.90
17092;DHT22;8661;45.700;4.880;2023-12-29T15:42:59;12.80;99.90
17092;DHT22;8661;45.700;4.880;2023-12-29T15:45:30;12.70;99.90
17092;DHT22;8661;45.700;4.880;2023-12-29T15:47:57;12.70;99.90
17092;DHT22;8661;45.700;4.880;2023-12-29T15:50:24;12.60;99.90
17092;DHT22;8661;45.700;4.880;2023-12-29T15:52:51;12.60;99.90
17092;DHT22;8661;45.700;4.880;2023-12-29T15:55:22;12.60;99.90